Time;durP1;ratioP1;P1;durP2;ratioP2;P2;SDS_P1;SDS_P2;PMS_P1;PMS_P2;Temp;Humidity;BMP_temperature;BMP_pressure;BME280_temperature;BME280_humidity;BME280_pressure;Samples;Min_cycle;Max_cycle;Signal;HPM_P1;HPM_P2
2023/11/02 00:02:23;;;;;;;5.05;3.97;;;;;;;;;;5134495;27;20439;-72
2023/11/02 00:05:28;;;;;;;4.72;3.55;;;;;;;;;;5119700;27;20026;-72
2023/11/02 00:08:14;;;;;;;8.10;4.15;;;;;;;;;;5134916;27;20373;-72
2023/11/02 00:11:03;;;;;;;7.20;4.35;;;;;;;;;;5134046;27;20023;-73
2023/11/02 00:13:50;;;;;;;7.50;4.60;;;;;;;;;;5119257;27;20092;-72
2023/11/02 00:16:36;;;;;;;9.07;4.03;;;;;;;;;;5134490;27;20023;-72
2023/11/02 00:19:21;;;;;;;8.65;4.25;;;;;;;;;;5119141;27;20025;-73
2023/11/02 00:22:08;;;;;;;6.47;4.55;;;;;;;;;;5135453;27;20084;-72
2023/11/02 00:24:56;;;;;;;7.32;4.00;;;;;;;;;;5134472;27;20019;-72
2023/11/02 00:27:42;;;;;;;6.85;3.70;;;;;;;;;;5133936;27;20034;-72
2023/11/02 00:30:27;;;;;;;7.03;3.40;;;;;;;;;;5133693;27;20015;-72
2023/11/02 00:33:13;;;;;;;4.32;3.33;;;;;;;;;;5134840;27;20032;-72
2023/11/02 00:35:59;;;;;;;6.35;3.38;;;;;;;;;;5120272;27;20012;-72
2023/11/02 00:38:46;;;;;;;3.97;3.00;;;;;;;;;;5136615;27;20031;-72
2023/11/02 00:41:32;;;;;;;4.28;2.75;;;;;;;;;;5119165;28;20023;-71
2023/11/02 00:44:18;;;;;;;4.82;2.70;;;;;;;;;;5134120;28;20359;-72
2023/11/02 00:47:04;;;;;;;3.97;3.17;;;;;;;;;;5133723;28;20027;-71
2023/11/02 00:49:50;;;;;;;4.13;2.60;;;;;;;;;;5134360;28;20030;-71
2023/11/02 00:52:35;;;;;;;4.00;2.70;;;;;;;;;;5134863;28;20352;-72
2023/11/02 00:55:36;;;;;;;5.28;2.80;;;;;;;;;;5135723;28;20401;-72
2023/11/02 00:58:27;;;;;;;6.88;3.00;;;;;;;;;;5135412;28;20023;-72
2023/11/02 01:01:13;;;;;;;3.50;2.58;;;;;;;;;;5134201;28;20019;-72
2023/11/02 01:04:07;;;;;;;4.43;2.60;;;;;;;;;;5135641;28;20038;-72
2023/11/02 01:06:53;;;;;;;5.05;2.35;;;;;;;;;;5134883;28;20023;-72
2023/11/02 01:09:41;;;;;;;3.42;2.10;;;;;;;;;;5118335;28;20007;-71
2023/11/02 01:12:31;;;;;;;4.53;2.10;;;;;;;;;;5135441;28;20100;-72
2023/11/02 01:15:43;;;;;;;2.92;2.08;;;;;;;;;;5123537;27;20400;-71
2023/11/02 01:18:29;;;;;;;3.10;1.80;;;;;;;;;;5113606;27;20024;-71
2023/11/02 01:21:15;;;;;;;3.67;2.10;;;;;;;;;;5139365;27;20011;-72
2023/11/02 01:24:02;;;;;;;4.50;2.08;;;;;;;;;;5140221;27;20026;-72
2023/11/02 01:26:47;;;;;;;3.22;2.17;;;;;;;;;;5124217;27;20418;-71
2023/11/02 01:29:34;;;;;;;2.50;1.88;;;;;;;;;;5138333;27;20027;-71
2023/11/02 01:32:20;;;;;;;2.67;2.13;;;;;;;;;;5122021;27;20015;-72
2023/11/02 01:35:28;;;;;;;3.80;1.88;;;;;;;;;;5138654;27;20343;-71
2023/11/02 01:38:14;;;;;;;2.92;2.10;;;;;;;;;;5138336;27;20030;-71
2023/11/02 01:41:10;;;;;;;3.17;2.30;;;;;;;;;;5139276;27;20098;-71
2023/11/02 01:44:03;;;;;;;3.60;2.22;;;;;;;;;;5137992;27;20027;-71
2023/11/02 01:47:06;;;;;;;3.10;2.22;;;;;;;;;;5136539;27;20027;-71
2023/11/02 01:50:09;;;;;;;5.60;2.72;;;;;;;;;;5137154;27;20464;-72
2023/11/02 01:53:15;;;;;;;3.67;2.40;;;;;;;;;;5138137;27;20042;-71
2023/11/02 01:56:08;;;;;;;2.90;2.28;;;;;;;;;;5137871;27;20125;-71
2023/11/02 01:59:10;;;;;;;7.68;2.30;;;;;;;;;;5137680;27;20366;-70
2023/11/02 02:01:59;;;;;;;3.72;2.53;;;;;;;;;;5138262;27;20020;-71
2023/11/02 02:04:59;;;;;;;4.93;2.40;;;;;;;;;;5137797;27;20027;-72
2023/11/02 02:07:47;;;;;;;4.53;2.58;;;;;;;;;;5137376;27;20450;-71
2023/11/02 02:10:42;;;;;;;4.75;2.70;;;;;;;;;;5138267;27;20031;-72
2023/11/02 02:13:46;;;;;;;3.92;2.33;;;;;;;;;;5137716;27;20106;-72
2023/11/02 02:16:46;;;;;;;3.83;2.30;;;;;;;;;;5137592;27;20072;-73
2023/11/02 02:19:34;;;;;;;6.00;2.40;;;;;;;;;;5122330;27;20020;-72
2023/11/02 02:22:24;;;;;;;2.97;2.10;;;;;;;;;;5137561;27;20028;-72
2023/11/02 02:25:12;;;;;;;2.80;2.10;;;;;;;;;;5136901;27;20122;-73
2023/11/02 02:27:58;;;;;;;6.88;2.50;;;;;;;;;;5137519;27;20023;-71
2023/11/02 02:31:02;;;;;;;10.13;2.60;;;;;;;;;;5137850;27;20038;-72
2023/11/02 02:33:48;;;;;;;6.43;2.78;;;;;;;;;;5136854;27;20019;-71
2023/11/02 02:36:52;;;;;;;7.55;2.67;;;;;;;;;;5122882;27;20023;-72
2023/11/02 02:39:39;;;;;;;3.38;2.45;;;;;;;;;;5137189;27;20026;-72
2023/11/02 02:42:25;;;;;;;4.80;2.45;;;;;;;;;;5136819;27;20030;-71
2023/11/02 02:45:11;;;;;;;4.78;2.85;;;;;;;;;;5137074;27;20015;-72
2023/11/02 02:47:58;;;;;;;5.00;2.28;;;;;;;;;;5137530;27;20051;-71
2023/11/02 02:50:44;;;;;;;3.55;2.75;;;;;;;;;;5136741;27;20488;-71
2023/11/02 02:53:31;;;;;;;3.05;2.50;;;;;;;;;;5122510;27;20046;-70
2023/11/02 02:56:21;;;;;;;3.85;2.50;;;;;;;;;;5136826;27;20061;-71
2023/11/02 02:59:15;;;;;;;2.97;2.30;;;;;;;;;;5136868;27;20115;-72
2023/11/02 03:02:01;;;;;;;3.90;2.75;;;;;;;;;;5137507;27;20330;-71
2023/11/02 03:04:48;;;;;;;7.18;3.58;;;;;;;;;;5136504;27;20030;-72
2023/11/02 03:07:36;;;;;;;7.13;3.42;;;;;;;;;;5135938;27;20111;-72
2023/11/02 03:10:24;;;;;;;5.50;3.53;;;;;;;;;;5137020;27;20533;-72
2023/11/02 03:13:12;;;;;;;9.30;3.90;;;;;;;;;;5136007;27;20458;-71
2023/11/02 03:16:00;;;;;;;7.25;4.05;;;;;;;;;;5136473;27;20026;-72
2023/11/02 03:18:46;;;;;;;9.48;3.90;;;;;;;;;;5122652;27;20431;-71
2023/11/02 03:21:31;;;;;;;6.05;4.00;;;;;;;;;;5137262;27;20042;-71
2023/11/02 03:24:19;;;;;;;7.05;3.65;;;;;;;;;;5135943;27;20030;-71
2023/11/02 03:27:07;;;;;;;6.85;3.65;;;;;;;;;;5122866;27;20110;-71
2023/11/02 03:30:04;;;;;;;7.75;4.32;;;;;;;;;;5136511;27;20055;-72
2023/11/02 03:32:55;;;;;;;6.20;3.63;;;;;;;;;;5121242;27;20359;-72
2023/11/02 03:35:43;;;;;;;6.50;3.72;;;;;;;;;;5136671;27;20023;-72
2023/11/02 03:38:51;;;;;;;12.32;3.45;;;;;;;;;;5135585;27;20031;-72
2023/11/02 03:41:40;;;;;;;4.57;3.20;;;;;;;;;;5135164;27;20023;-72
2023/11/02 03:44:44;;;;;;;5.90;3.05;;;;;;;;;;5121179;27;20070;-71
2023/11/02 03:47:49;;;;;;;6.07;3.17;;;;;;;;;;5135392;27;20407;-71
2023/11/02 03:50:50;;;;;;;4.60;2.67;;;;;;;;;;5135710;27;20026;-71
2023/11/02 03:53:54;;;;;;;5.45;2.50;;;;;;;;;;5135251;27;20030;-71
2023/11/02 03:56:49;;;;;;;4.50;3.10;;;;;;;;;;5133773;27;20035;-71
2023/11/02 03:59:42;;;;;;;3.67;2.83;;;;;;;;;;5120556;27;20027;-72
2023/11/02 04:02:29;;;;;;;6.85;4.10;;;;;;;;;;5135565;27;20417;-72
2023/11/02 04:05:21;;;;;;;5.82;3.20;;;;;;;;;;5135458;27;20076;-71
2023/11/02 04:08:17;;;;;;;5.22;3.00;;;;;;;;;;5135897;27;20019;-71
2023/11/02 04:11:13;;;;;;;6.35;3.22;;;;;;;;;;5134754;27;20023;-72
2023/11/02 04:14:02;;;;;;;4.28;3.30;;;;;;;;;;5120603;27;20113;-71
2023/11/02 04:16:48;;;;;;;11.60;3.20;;;;;;;;;;5135914;27;20037;-71
2023/11/02 04:19:34;;;;;;;9.52;2.90;;;;;;;;;;5135403;27;20015;-71
2023/11/02 04:22:19;;;;;;;5.07;2.92;;;;;;;;;;5134881;27;20084;-72
2023/11/02 04:25:05;;;;;;;7.60;3.30;;;;;;;;;;5135730;27;20107;-72
2023/11/02 04:27:51;;;;;;;5.88;3.00;;;;;;;;;;5134356;27;20042;-73
2023/11/02 04:30:36;;;;;;;5.68;3.42;;;;;;;;;;5135983;27;20083;-72
2023/11/02 04:33:23;;;;;;;7.65;3.58;;;;;;;;;;5134482;27;20015;-72
2023/11/02 04:36:08;;;;;;;5.45;3.55;;;;;;;;;;5134846;27;20023;-72
2023/11/02 04:38:54;;;;;;;6.30;3.88;;;;;;;;;;5134651;27;20056;-71
2023/11/02 04:41:40;;;;;;;5.47;3.92;;;;;;;;;;5134890;27;20015;-70
2023/11/02 04:44:25;;;;;;;7.28;3.92;;;;;;;;;;5120576;28;20011;-73
2023/11/02 04:47:11;;;;;;;7.38;3.95;;;;;;;;;;5134365;28;20019;-72
2023/11/02 04:49:57;;;;;;;6.60;4.05;;;;;;;;;;5122693;27;20026;-71
2023/11/02 04:52:42;;;;;;;6.57;4.30;;;;;;;;;;5125756;27;20019;-72
2023/11/02 04:55:28;;;;;;;5.80;4.25;;;;;;;;;;5139731;27;20498;-71
2023/11/02 04:58:14;;;;;;;6.93;3.75;;;;;;;;;;5139492;27;20034;-71
2023/11/02 05:00:59;;;;;;;6.97;4.13;;;;;;;;;;5139054;27;20368;-72
2023/11/02 05:03:45;;;;;;;6.55;4.20;;;;;;;;;;5140408;27;20369;-71
2023/11/02 05:06:30;;;;;;;7.15;4.40;;;;;;;;;;5139462;27;20030;-72
2023/11/02 05:09:19;;;;;;;8.38;4.78;;;;;;;;;;5139691;27;20066;-72
2023/11/02 05:12:04;;;;;;;6.38;4.47;;;;;;;;;;5124144;27;20031;-72
2023/11/02 05:14:50;;;;;;;6.43;4.63;;;;;;;;;;5121979;27;20011;-72
2023/11/02 05:17:35;;;;;;;15.60;5.00;;;;;;;;;;5139316;27;20084;-72
2023/11/02 05:20:21;;;;;;;8.63;4.72;;;;;;;;;;5139252;27;20323;-71
2023/11/02 05:23:09;;;;;;;7.13;4.40;;;;;;;;;;5139101;27;20568;-71
2023/11/02 05:25:54;;;;;;;10.43;5.15;;;;;;;;;;5121974;27;20023;-71
2023/11/02 05:28:40;;;;;;;7.13;4.63;;;;;;;;;;5137940;27;20058;-72
2023/11/02 05:31:26;;;;;;;8.63;4.20;;;;;;;;;;5139419;27;20026;-71
2023/11/02 05:34:11;;;;;;;7.68;4.32;;;;;;;;;;5139222;27;20074;-71
2023/11/02 05:36:57;;;;;;;10.25;4.93;;;;;;;;;;5138800;27;20051;-73
2023/11/02 05:39:42;;;;;;;10.05;4.78;;;;;;;;;;5122658;27;20462;-71
2023/11/02 05:42:28;;;;;;;10.75;5.18;;;;;;;;;;5139086;27;20023;-72
2023/11/02 05:45:14;;;;;;;15.27;5.13;;;;;;;;;;5137877;27;20053;-72
2023/11/02 05:48:00;;;;;;;12.93;5.20;;;;;;;;;;5137267;27;20031;-72
2023/11/02 05:50:45;;;;;;;8.55;4.90;;;;;;;;;;5138614;27;20362;-72
2023/11/02 05:53:31;;;;;;;11.10;5.45;;;;;;;;;;5138160;27;20023;-72
2023/11/02 05:56:17;;;;;;;20.15;5.88;;;;;;;;;;5137432;27;20437;-72
2023/11/02 05:59:03;;;;;;;13.43;5.47;;;;;;;;;;5122593;27;20031;-71
2023/11/02 06:01:48;;;;;;;11.57;5.18;;;;;;;;;;5138666;27;20019;-71
2023/11/02 06:04:34;;;;;;;13.07;5.68;;;;;;;;;;5138821;27;20087;-72
2023/11/02 06:07:19;;;;;;;8.90;4.78;;;;;;;;;;5137499;27;20016;-72
2023/11/02 06:10:05;;;;;;;12.75;5.28;;;;;;;;;;5138718;27;20427;-71
2023/11/02 06:12:51;;;;;;;10.15;4.97;;;;;;;;;;5137168;27;20605;-72
2023/11/02 06:15:36;;;;;;;8.45;5.28;;;;;;;;;;5138578;27;20431;-73
2023/11/02 06:18:22;;;;;;;7.22;4.82;;;;;;;;;;5137594;27;20050;-72
2023/11/02 06:21:08;;;;;;;9.15;5.47;;;;;;;;;;5137190;27;20064;-72
2023/11/02 06:23:53;;;;;;;11.38;5.45;;;;;;;;;;5138210;27;20015;-72
2023/11/02 06:26:39;;;;;;;9.38;5.20;;;;;;;;;;5138457;27;20026;-71
2023/11/02 06:29:24;;;;;;;12.18;5.47;;;;;;;;;;5138057;27;20106;-72
2023/11/02 06:32:10;;;;;;;12.45;5.50;;;;;;;;;;5120519;27;20092;-71
2023/11/02 06:34:56;;;;;;;8.93;5.30;;;;;;;;;;5137598;27;20023;-72
2023/11/02 06:37:57;;;;;;;8.55;4.63;;;;;;;;;;5137316;27;20019;-71
2023/11/02 06:40:43;;;;;;;13.55;4.65;;;;;;;;;;5137265;27;20168;-70
2023/11/02 06:43:29;;;;;;;11.50;5.38;;;;;;;;;;5136565;27;20502;-71
2023/11/02 06:46:14;;;;;;;10.23;5.00;;;;;;;;;;5122832;27;20046;-72
2023/11/02 06:49:00;;;;;;;10.18;5.07;;;;;;;;;;5122861;27;20098;-72
2023/11/02 06:51:46;;;;;;;9.02;4.78;;;;;;;;;;5137754;27;20019;-71
2023/11/02 06:54:31;;;;;;;18.90;5.75;;;;;;;;;;5136069;27;20371;-71
2023/11/02 06:57:17;;;;;;;17.55;5.63;;;;;;;;;;5136917;27;20367;-71
2023/11/02 07:00:09;;;;;;;11.65;4.85;;;;;;;;;;5136665;27;20030;-72
2023/11/02 07:02:55;;;;;;;10.55;5.65;;;;;;;;;;5137617;27;20102;-70
2023/11/02 07:05:41;;;;;;;10.68;6.22;;;;;;;;;;5121668;27;20462;-71
2023/11/02 07:08:28;;;;;;;12.85;5.53;;;;;;;;;;5122473;27;20505;-72
2023/11/02 07:11:14;;;;;;;16.48;8.13;;;;;;;;;;5136483;27;20481;-71
2023/11/02 07:14:00;;;;;;;19.13;7.18;;;;;;;;;;5136929;27;20019;-71
2023/11/02 07:16:46;;;;;;;11.25;5.80;;;;;;;;;;5122989;27;20035;-72
2023/11/02 07:19:31;;;;;;;9.13;4.78;;;;;;;;;;5136124;27;20019;-71
2023/11/02 07:22:17;;;;;;;14.23;5.65;;;;;;;;;;5136303;27;20024;-71
2023/11/02 07:25:02;;;;;;;10.90;5.20;;;;;;;;;;5135838;27;20023;-73
2023/11/02 07:27:48;;;;;;;12.27;5.57;;;;;;;;;;5122107;27;20020;-71
2023/11/02 07:30:34;;;;;;;10.80;5.80;;;;;;;;;;5123272;27;20043;-72
2023/11/02 07:33:20;;;;;;;10.50;5.43;;;;;;;;;;5135784;27;20050;-72
2023/11/02 07:36:11;;;;;;;16.23;8.85;;;;;;;;;;5135368;27;20035;-72
2023/11/02 07:38:57;;;;;;;10.40;5.30;;;;;;;;;;5135466;27;20027;-71
2023/11/02 07:41:43;;;;;;;10.75;5.75;;;;;;;;;;5120842;27;20019;-70
2023/11/02 07:44:29;;;;;;;9.95;5.80;;;;;;;;;;5121046;27;20034;-72
2023/11/02 07:47:14;;;;;;;15.05;6.05;;;;;;;;;;5135813;27;20019;-73
2023/11/02 07:50:00;;;;;;;9.52;6.03;;;;;;;;;;5120035;27;20079;-74
2023/11/02 07:52:46;;;;;;;9.75;5.90;;;;;;;;;;5137889;27;20359;-75
2023/11/02 07:55:31;;;;;;;11.23;5.97;;;;;;;;;;5136922;27;20049;-74
2023/11/02 07:58:17;;;;;;;10.05;5.97;;;;;;;;;;5123076;27;20023;-74
2023/11/02 08:01:03;;;;;;;15.38;6.25;;;;;;;;;;5135194;27;20015;-75
2023/11/02 08:03:48;;;;;;;10.60;5.88;;;;;;;;;;5137429;27;20047;-76
2023/11/02 08:06:34;;;;;;;10.65;5.65;;;;;;;;;;5136937;27;20486;-75
2023/11/02 08:09:19;;;;;;;12.68;5.85;;;;;;;;;;5138994;27;20121;-76
2023/11/02 08:12:08;;;;;;;11.70;5.55;;;;;;;;;;5135310;27;20030;-75
2023/11/02 08:14:54;;;;;;;9.73;5.47;;;;;;;;;;5121980;27;20072;-76
2023/11/02 08:17:41;;;;;;;11.68;5.20;;;;;;;;;;5137529;27;20446;-74
2023/11/02 08:20:28;;;;;;;13.82;5.85;;;;;;;;;;5135974;27;20027;-75
2023/11/02 08:23:13;;;;;;;9.32;5.28;;;;;;;;;;5135688;27;20017;-74
2023/11/02 08:25:59;;;;;;;11.73;6.07;;;;;;;;;;5136839;27;20114;-75
2023/11/02 08:28:44;;;;;;;10.00;5.30;;;;;;;;;;5137097;27;20023;-74
2023/11/02 08:31:31;;;;;;;11.93;5.38;;;;;;;;;;5135439;27;20075;-74
2023/11/02 08:34:17;;;;;;;11.27;5.70;;;;;;;;;;5135522;27;20015;-75
2023/11/02 08:37:02;;;;;;;10.82;5.20;;;;;;;;;;5134919;27;20045;-75
2023/11/02 08:39:48;;;;;;;8.57;5.40;;;;;;;;;;5136557;27;20051;-74
2023/11/02 08:42:34;;;;;;;15.25;5.93;;;;;;;;;;5136089;27;20076;-75
2023/11/02 08:45:20;;;;;;;12.95;5.65;;;;;;;;;;5133473;28;20015;-76
2023/11/02 08:48:06;;;;;;;12.40;5.88;;;;;;;;;;5119898;28;20019;-76
2023/11/02 08:50:52;;;;;;;14.15;5.88;;;;;;;;;;5135310;28;20023;-76
2023/11/02 08:53:39;;;;;;;14.98;5.78;;;;;;;;;;5135381;27;20027;-75
2023/11/02 08:56:24;;;;;;;13.50;5.90;;;;;;;;;;5134182;28;20095;-75
2023/11/02 08:59:10;;;;;;;14.57;6.07;;;;;;;;;;5135477;28;20019;-74
2023/11/02 09:01:56;;;;;;;15.10;5.72;;;;;;;;;;5135958;28;20404;-76
2023/11/02 09:04:42;;;;;;;15.90;6.43;;;;;;;;;;5135918;28;20116;-76
2023/11/02 09:07:29;;;;;;;12.23;5.78;;;;;;;;;;5134288;28;20015;-75
2023/11/02 09:10:15;;;;;;;9.68;5.43;;;;;;;;;;5135903;28;20026;-75
2023/11/02 09:13:00;;;;;;;9.30;5.72;;;;;;;;;;5135007;28;20022;-76
2023/11/02 09:15:46;;;;;;;15.55;6.07;;;;;;;;;;5119504;28;20035;-76
2023/11/02 09:18:31;;;;;;;13.02;5.68;;;;;;;;;;5135117;28;20011;-76
2023/11/02 09:21:17;;;;;;;11.13;5.10;;;;;;;;;;5121272;28;20111;-75
2023/11/02 09:24:04;;;;;;;12.20;6.57;;;;;;;;;;5121164;28;20466;-75
2023/11/02 09:26:49;;;;;;;13.32;6.40;;;;;;;;;;5136401;28;20052;-75
2023/11/02 09:29:35;;;;;;;13.95;6.25;;;;;;;;;;5118484;28;20026;-75
2023/11/02 09:32:21;;;;;;;10.27;5.22;;;;;;;;;;5136503;28;20023;-76
2023/11/02 09:35:06;;;;;;;14.50;5.80;;;;;;;;;;5137266;27;20023;-75
2023/11/02 09:37:52;;;;;;;10.77;5.32;;;;;;;;;;5142924;27;20034;-75
2023/11/02 09:40:38;;;;;;;14.70;5.80;;;;;;;;;;5138155;27;20024;-74
2023/11/02 09:43:24;;;;;;;15.82;5.68;;;;;;;;;;5141914;27;20020;-75
2023/11/02 09:46:12;;;;;;;11.70;5.80;;;;;;;;;;5137817;27;20031;-75
2023/11/02 09:48:58;;;;;;;12.50;5.78;;;;;;;;;;5138893;27;20069;-75
2023/11/02 09:51:43;;;;;;;10.75;6.18;;;;;;;;;;5140143;27;20017;-75
2023/11/02 09:54:29;;;;;;;14.63;6.35;;;;;;;;;;5138445;27;20043;-75
2023/11/02 09:57:15;;;;;;;15.02;6.30;;;;;;;;;;5139175;27;20075;-74
2023/11/02 10:00:07;;;;;;;13.98;6.43;;;;;;;;;;5137702;27;20023;-75
2023/11/02 10:02:52;;;;;;;9.32;5.85;;;;;;;;;;5123299;27;20019;-75
2023/11/02 10:05:38;;;;;;;12.40;5.60;;;;;;;;;;5137926;27;20405;-75
2023/11/02 10:08:24;;;;;;;9.63;5.88;;;;;;;;;;5137895;27;20015;-75
2023/11/02 10:11:11;;;;;;;10.90;5.28;;;;;;;;;;5137631;27;20015;-74
2023/11/02 10:13:57;;;;;;;10.25;6.15;;;;;;;;;;5138142;27;20098;-74
2023/11/02 10:16:42;;;;;;;10.02;5.25;;;;;;;;;;5138665;27;20023;-74
2023/11/02 10:19:30;;;;;;;8.52;4.88;;;;;;;;;;5136777;27;20037;-75
2023/11/02 10:22:16;;;;;;;9.35;4.82;;;;;;;;;;5137181;27;20206;-75
2023/11/02 10:25:03;;;;;;;10.02;5.00;;;;;;;;;;5137769;27;20035;-75
2023/11/02 10:27:49;;;;;;;8.93;5.15;;;;;;;;;;5138069;27;20149;-75
2023/11/02 10:30:35;;;;;;;12.85;5.63;;;;;;;;;;5138178;27;20015;-75
2023/11/02 10:33:29;;;;;;;14.45;5.60;;;;;;;;;;5138283;27;20446;-75
2023/11/02 10:36:16;;;;;;;17.58;6.47;;;;;;;;;;5123238;27;20027;-75
2023/11/02 10:39:02;;;;;;;12.77;6.18;;;;;;;;;;5137616;27;20118;-74
2023/11/02 10:42:00;;;;;;;16.63;5.65;;;;;;;;;;5137954;27;20068;-75
2023/11/02 10:44:48;;;;;;;11.48;4.85;;;;;;;;;;5138360;27;20329;-76
2023/11/02 10:47:37;;;;;;;9.40;5.45;;;;;;;;;;5126914;27;20015;-75
2023/11/02 10:50:24;;;;;;;13.95;5.53;;;;;;;;;;5122229;27;20450;-76
2023/11/02 10:53:13;;;;;;;10.15;5.03;;;;;;;;;;5138822;27;20025;-75
2023/11/02 10:56:02;;;;;;;15.65;6.57;;;;;;;;;;5139719;27;20118;-75
2023/11/02 10:58:54;;;;;;;10.27;5.50;;;;;;;;;;5125370;27;20019;-75
2023/11/02 11:01:41;;;;;;;15.32;6.03;;;;;;;;;;5142013;27;20428;-76
2023/11/02 11:04:27;;;;;;;8.70;5.35;;;;;;;;;;5127610;27;20375;-75
2023/11/02 11:07:13;;;;;;;17.73;6.03;;;;;;;;;;5137727;27;20019;-74
2023/11/02 11:10:00;;;;;;;9.88;5.70;;;;;;;;;;5121585;27;20015;-75
2023/11/02 11:12:45;;;;;;;9.65;4.53;;;;;;;;;;5136396;27;20035;-75
2023/11/02 11:15:31;;;;;;;12.57;5.50;;;;;;;;;;5137150;27;20016;-75
2023/11/02 11:18:17;;;;;;;9.27;5.55;;;;;;;;;;5121290;27;20030;-75
2023/11/02 11:21:04;;;;;;;9.55;5.55;;;;;;;;;;5122301;27;20072;-75
2023/11/02 11:23:49;;;;;;;14.10;6.32;;;;;;;;;;5137167;27;20094;-75
2023/11/02 11:26:45;;;;;;;14.48;5.60;;;;;;;;;;5135744;27;20458;-75
2023/11/02 11:29:40;;;;;;;14.77;6.65;;;;;;;;;;5136390;27;20027;-75
2023/11/02 11:32:27;;;;;;;19.10;7.10;;;;;;;;;;5120944;27;20034;-75
2023/11/02 11:35:14;;;;;;;11.52;6.65;;;;;;;;;;5121059;27;20015;-75
2023/11/02 11:38:01;;;;;;;11.85;5.80;;;;;;;;;;5135100;27;20027;-75
2023/11/02 11:40:47;;;;;;;12.73;6.50;;;;;;;;;;5136082;27;20031;-75
2023/11/02 11:43:52;;;;;;;13.93;6.95;;;;;;;;;;5136004;27;20036;-76
2023/11/02 11:46:51;;;;;;;8.85;5.72;;;;;;;;;;5135450;27;20071;-75
2023/11/02 11:49:39;;;;;;;10.25;6.28;;;;;;;;;;5135060;27;20454;-75
2023/11/02 11:52:27;;;;;;;13.93;6.05;;;;;;;;;;5135764;27;20087;-75
2023/11/02 11:55:32;;;;;;;11.02;5.55;;;;;;;;;;5134671;27;20380;-75
2023/11/02 11:58:19;;;;;;;9.75;5.65;;;;;;;;;;5135033;27;20034;-74
2023/11/02 12:01:05;;;;;;;16.98;5.88;;;;;;;;;;5135202;27;20023;-74
2023/11/02 12:03:50;;;;;;;9.05;5.70;;;;;;;;;;5135015;27;20019;-75
2023/11/02 12:06:37;;;;;;;11.88;6.00;;;;;;;;;;5135461;27;20027;-75
2023/11/02 12:09:26;;;;;;;11.95;6.43;;;;;;;;;;5134883;27;20479;-74
2023/11/02 12:12:13;;;;;;;7.60;5.45;;;;;;;;;;5135218;27;20034;-74
2023/11/02 12:15:17;;;;;;;10.38;5.60;;;;;;;;;;5135033;27;20075;-74
2023/11/02 12:18:02;;;;;;;9.32;6.20;;;;;;;;;;5135173;27;20026;-72
2023/11/02 12:20:48;;;;;;;9.75;6.28;;;;;;;;;;5135431;27;20106;-71
2023/11/02 12:23:35;;;;;;;10.07;6.00;;;;;;;;;;5120905;27;20022;-72
2023/11/02 12:26:22;;;;;;;13.00;6.53;;;;;;;;;;5134338;27;20098;-72
2023/11/02 12:29:11;;;;;;;7.85;5.95;;;;;;;;;;5134502;27;20451;-71
2023/11/02 12:31:56;;;;;;;12.52;6.68;;;;;;;;;;5119697;27;20030;-72
2023/11/02 12:34:42;;;;;;;10.45;6.10;;;;;;;;;;5120591;27;20023;-71
2023/11/02 12:37:28;;;;;;;11.60;6.93;;;;;;;;;;5135522;27;20015;-71
2023/11/02 12:40:14;;;;;;;9.75;6.88;;;;;;;;;;5134775;27;20045;-71
2023/11/02 12:43:00;;;;;;;12.40;6.63;;;;;;;;;;5135089;27;20055;-71
2023/11/02 12:45:46;;;;;;;9.45;6.00;;;;;;;;;;5135390;28;20115;-71
2023/11/02 12:48:32;;;;;;;10.98;6.30;;;;;;;;;;5135402;28;20537;-71
2023/11/02 12:51:18;;;;;;;10.00;6.30;;;;;;;;;;5134631;28;20087;-71
2023/11/02 12:54:11;;;;;;;11.13;6.43;;;;;;;;;;5133985;28;20049;-71
2023/11/02 12:57:00;;;;;;;15.88;6.95;;;;;;;;;;5134354;28;20051;-71
2023/11/02 12:59:46;;;;;;;10.65;6.22;;;;;;;;;;5134791;28;20030;-72
2023/11/02 13:02:32;;;;;;;11.50;6.28;;;;;;;;;;5134813;28;20030;-71
2023/11/02 13:05:32;;;;;;;8.23;6.30;;;;;;;;;;5135538;28;20019;-72
2023/11/02 13:08:23;;;;;;;11.15;5.82;;;;;;;;;;5135287;28;20034;-71
2023/11/02 13:11:09;;;;;;;11.15;6.53;;;;;;;;;;5138020;27;20030;-71
2023/11/02 13:13:55;;;;;;;11.55;7.32;;;;;;;;;;5139771;27;20186;-71
2023/11/02 13:16:40;;;;;;;9.95;5.85;;;;;;;;;;5138957;27;20409;-72
2023/11/02 13:19:27;;;;;;;8.32;5.65;;;;;;;;;;5138845;27;20027;-71
2023/11/02 13:22:13;;;;;;;10.23;6.53;;;;;;;;;;5123092;27;20027;-71
2023/11/02 13:24:58;;;;;;;9.48;5.70;;;;;;;;;;5137917;27;20474;-71
2023/11/02 13:27:44;;;;;;;12.48;6.13;;;;;;;;;;5139097;27;20027;-71
2023/11/02 13:30:30;;;;;;;11.73;6.32;;;;;;;;;;5138434;27;20106;-72
2023/11/02 13:33:16;;;;;;;10.10;6.50;;;;;;;;;;5138851;27;20087;-72
2023/11/02 13:36:02;;;;;;;9.73;6.70;;;;;;;;;;5138097;27;20030;-72
2023/11/02 13:38:48;;;;;;;11.23;5.88;;;;;;;;;;5138748;27;20111;-71
2023/11/02 13:41:34;;;;;;;11.60;6.82;;;;;;;;;;5138302;27;20054;-72
2023/11/02 13:44:19;;;;;;;13.00;6.90;;;;;;;;;;5138460;27;20110;-72
2023/11/02 13:47:05;;;;;;;9.70;6.75;;;;;;;;;;5137760;27;20019;-72
2023/11/02 13:49:51;;;;;;;10.63;6.40;;;;;;;;;;5136164;27;20023;-73
2023/11/02 13:52:36;;;;;;;11.40;7.18;;;;;;;;;;5138393;27;20027;-72
2023/11/02 13:55:22;;;;;;;9.90;7.07;;;;;;;;;;5137765;27;20047;-72
2023/11/02 13:58:08;;;;;;;12.75;6.75;;;;;;;;;;5138054;27;20124;-72
2023/11/02 14:00:53;;;;;;;10.57;7.38;;;;;;;;;;5137857;27;20098;-71
2023/11/02 14:03:39;;;;;;;10.88;7.43;;;;;;;;;;5138198;27;20042;-72
2023/11/02 14:06:24;;;;;;;14.70;7.07;;;;;;;;;;5123744;27;20019;-72
2023/11/02 14:09:10;;;;;;;13.35;7.25;;;;;;;;;;5137421;27;20408;-73
2023/11/02 14:11:56;;;;;;;11.07;7.18;;;;;;;;;;5138242;27;20051;-72
2023/11/02 14:14:41;;;;;;;14.27;7.22;;;;;;;;;;5138006;27;20079;-73
2023/11/02 14:17:27;;;;;;;11.85;6.95;;;;;;;;;;5137478;27;20367;-72
2023/11/02 14:20:13;;;;;;;12.73;7.88;;;;;;;;;;5137957;27;20430;-71
2023/11/02 14:22:58;;;;;;;13.73;8.48;;;;;;;;;;5137515;27;20050;-73
2023/11/02 14:25:44;;;;;;;12.40;7.30;;;;;;;;;;5137493;27;20029;-72
2023/11/02 14:28:32;;;;;;;10.93;7.38;;;;;;;;;;5137917;27;20039;-72
2023/11/02 14:31:18;;;;;;;26.98;9.18;;;;;;;;;;5137565;27;20034;-71
2023/11/02 14:34:05;;;;;;;12.23;7.00;;;;;;;;;;5137632;27;20034;-72
2023/11/02 14:36:51;;;;;;;9.95;7.38;;;;;;;;;;5137711;27;20091;-71
2023/11/02 14:39:36;;;;;;;11.13;7.57;;;;;;;;;;5123121;27;20092;-72
2023/11/02 14:42:23;;;;;;;12.95;7.13;;;;;;;;;;5136304;27;20058;-71
2023/11/02 14:45:09;;;;;;;17.17;7.95;;;;;;;;;;5136998;27;20033;-71
2023/11/02 14:47:55;;;;;;;16.98;7.30;;;;;;;;;;5137966;27;20023;-71
2023/11/02 14:50:41;;;;;;;18.73;8.65;;;;;;;;;;5137076;27;20344;-72
2023/11/02 14:53:26;;;;;;;13.60;7.80;;;;;;;;;;5121478;27;20435;-73
2023/11/02 14:56:12;;;;;;;14.30;8.25;;;;;;;;;;5122109;27;20027;-72
2023/11/02 14:58:57;;;;;;;11.38;7.60;;;;;;;;;;5121537;27;20313;-72
2023/11/02 15:01:43;;;;;;;12.65;7.68;;;;;;;;;;5136340;27;20023;-72
2023/11/02 15:04:28;;;;;;;14.90;8.32;;;;;;;;;;5122317;27;20022;-72
2023/11/02 15:07:14;;;;;;;13.35;7.97;;;;;;;;;;5135958;27;20455;-72
2023/11/02 15:10:00;;;;;;;12.07;7.80;;;;;;;;;;5122659;27;20049;-71
2023/11/02 15:12:46;;;;;;;13.68;8.57;;;;;;;;;;5136864;27;20516;-73
2023/11/02 15:15:31;;;;;;;14.18;7.97;;;;;;;;;;5121785;27;20023;-72
2023/11/02 15:18:17;;;;;;;11.73;8.48;;;;;;;;;;5137137;27;20019;-72
2023/11/02 15:21:12;;;;;;;15.10;8.57;;;;;;;;;;5136665;27;20047;-72
2023/11/02 15:23:58;;;;;;;13.25;8.93;;;;;;;;;;5122129;27;20038;-72
2023/11/02 15:26:44;;;;;;;14.15;9.00;;;;;;;;;;5137716;27;20075;-72
2023/11/02 15:29:32;;;;;;;10.95;8.48;;;;;;;;;;5136001;27;20344;-72
2023/11/02 15:32:17;;;;;;;14.20;9.73;;;;;;;;;;5134906;27;20064;-72
2023/11/02 15:35:03;;;;;;;18.90;9.80;;;;;;;;;;5135764;27;20015;-72
2023/11/02 15:37:49;;;;;;;27.83;10.73;;;;;;;;;;5136516;27;20023;-72
2023/11/02 15:40:36;;;;;;;17.48;10.05;;;;;;;;;;5135773;27;20105;-71
2023/11/02 15:43:21;;;;;;;18.90;9.52;;;;;;;;;;5136332;27;20055;-71
2023/11/02 15:46:11;;;;;;;22.00;10.77;;;;;;;;;;5136936;27;20030;-72
2023/11/02 15:48:56;;;;;;;18.27;10.38;;;;;;;;;;5136619;27;20443;-72
2023/11/02 15:51:43;;;;;;;14.77;10.20;;;;;;;;;;5134937;27;20102;-71
2023/11/02 15:54:28;;;;;;;13.30;9.63;;;;;;;;;;5135744;27;20051;-72
2023/11/02 15:57:17;;;;;;;16.50;10.68;;;;;;;;;;5135976;27;20015;-72
2023/11/02 16:00:05;;;;;;;12.85;9.52;;;;;;;;;;5135275;27;20367;-72
2023/11/02 16:02:51;;;;;;;18.20;10.73;;;;;;;;;;5134831;27;20439;-72
2023/11/02 16:05:37;;;;;;;16.83;10.63;;;;;;;;;;5120696;27;20023;-73
2023/11/02 16:08:22;;;;;;;16.20;11.23;;;;;;;;;;5135046;27;20030;-71
2023/11/02 16:11:08;;;;;;;16.27;10.95;;;;;;;;;;5120770;27;20030;-72
2023/11/02 16:13:53;;;;;;;16.65;10.98;;;;;;;;;;5135799;27;20431;-72
2023/11/02 16:16:43;;;;;;;18.45;11.15;;;;;;;;;;5120059;27;20023;-70
2023/11/02 16:19:29;;;;;;;20.38;11.50;;;;;;;;;;5135782;27;20400;-71
2023/11/02 16:22:14;;;;;;;18.25;11.30;;;;;;;;;;5135557;27;20031;-72
2023/11/02 16:25:00;;;;;;;21.88;12.57;;;;;;;;;;5119821;27;20019;-72
2023/11/02 16:27:46;;;;;;;18.40;11.30;;;;;;;;;;5120994;27;20197;-71
2023/11/02 16:30:34;;;;;;;26.67;11.45;;;;;;;;;;5135395;27;20119;-71
2023/11/02 16:33:20;;;;;;;22.35;11.50;;;;;;;;;;5120896;27;20019;-73
2023/11/02 16:36:07;;;;;;;27.27;11.07;;;;;;;;;;5135531;27;20057;-72
2023/11/02 16:38:53;;;;;;;21.23;12.73;;;;;;;;;;5135458;27;20423;-72